createdAt,value
2022-09-06T00:01:26.960Z,71.27
2022-09-06T00:03:55.035Z,74.30
2022-09-06T00:06:23.035Z,70.57
2022-09-06T00:08:51.050Z,70.63
2022-09-06T00:11:19.624Z,68.90
2022-09-06T00:13:48.524Z,72.40
2022-09-06T00:16:19.051Z,70.10
2022-09-06T00:18:48.478Z,69.97
2022-09-06T00:21:19.053Z,71.40
2022-09-06T00:23:47.087Z,72.00
2022-09-06T00:26:15.373Z,71.70
2022-09-06T00:28:43.511Z,70.33
2022-09-06T00:31:12.672Z,71.07
2022-09-06T00:33:41.022Z,73.50
2022-09-06T00:36:11.215Z,72.73
2022-09-06T00:38:39.712Z,73.10
2022-09-06T00:41:10.277Z,74.10
2022-09-06T00:43:38.581Z,73.00
2022-09-06T00:46:07.546Z,75.97
2022-09-06T00:48:36.580Z,70.47
2022-09-06T00:51:08.394Z,72.90
2022-09-06T00:53:37.948Z,74.47
2022-09-06T00:56:06.570Z,72.00
2022-09-06T00:58:34.705Z,72.80
2022-09-06T01:01:02.989Z,72.33
2022-09-06T01:03:31.025Z,72.30
2022-09-06T01:06:05.121Z,72.07
2022-09-06T01:08:44.139Z,72.40
2022-09-06T01:11:28.360Z,71.97
2022-09-06T01:14:01.535Z,72.17
2022-09-06T01:16:37.383Z,75.40
2022-09-06T01:19:27.335Z,75.73
2022-09-06T01:22:00.707Z,75.60
2022-09-06T01:25:01.214Z,72.57
2022-09-06T01:27:45.474Z,75.67
2022-09-06T01:30:14.736Z,73.87
2022-09-06T01:32:47.954Z,72.97
2022-09-06T01:35:22.439Z,74.80
2022-09-06T01:37:50.692Z,73.60
2022-09-06T01:40:18.938Z,78.67
2022-09-06T01:42:50.203Z,76.17
2022-09-06T01:45:20.850Z,73.47
2022-09-06T01:47:58.043Z,73.90
2022-09-06T01:50:52.186Z,75.03
2022-09-06T01:53:32.494Z,74.23
2022-09-06T01:56:05.698Z,75.40
2022-09-06T01:58:52.122Z,73.73
2022-09-06T02:01:23.470Z,74.87
2022-09-06T02:03:56.858Z,74.37
2022-09-06T02:06:28.706Z,74.27
2022-09-06T02:09:02.076Z,75.63
2022-09-06T02:11:35.051Z,75.60
2022-09-06T02:14:08.531Z,78.77
2022-09-06T02:16:39.672Z,74.57
2022-09-06T02:19:34.086Z,74.70
2022-09-06T02:22:04.834Z,73.30
2022-09-06T02:24:34.685Z,78.47
2022-09-06T02:27:02.711Z,73.93
2022-09-06T02:29:32.192Z,74.47
2022-09-06T02:32:03.031Z,74.97
2022-09-06T02:34:31.548Z,75.57
2022-09-06T02:36:59.751Z,76.27
2022-09-06T02:39:27.766Z,76.33
2022-09-06T02:41:56.140Z,75.93
2022-09-06T02:44:24.190Z,76.13
2022-09-06T02:46:56.947Z,75.40
2022-09-06T02:49:25.490Z,76.67
2022-09-06T02:51:53.495Z,75.10
2022-09-06T02:54:21.512Z,80.10
2022-09-06T02:56:52.225Z,75.60
2022-09-06T02:59:20.654Z,77.90
2022-09-06T03:01:48.895Z,77.50
2022-09-06T03:04:18.294Z,77.93
2022-09-06T03:06:46.395Z,78.00
2022-09-06T03:09:14.859Z,75.83
2022-09-06T03:11:42.978Z,76.87
2022-09-06T03:14:11.230Z,81.50
2022-09-06T03:16:39.365Z,76.30
2022-09-06T03:19:07.431Z,77.83
2022-09-06T03:21:36.850Z,77.93
2022-09-06T03:24:05.223Z,76.77
2022-09-06T03:26:33.303Z,79.97
2022-09-06T03:29:01.311Z,78.30
2022-09-06T03:31:29.416Z,77.07
2022-09-06T03:33:57.444Z,77.97
2022-09-06T03:36:25.476Z,80.77
2022-09-06T03:38:55.019Z,79.37
2022-09-06T03:41:23.056Z,80.67
2022-09-06T03:43:51.076Z,78.47
2022-09-06T03:46:19.186Z,81.27
2022-09-06T03:48:47.284Z,79.60
2022-09-06T03:51:15.541Z,81.73
2022-09-06T03:53:43.575Z,84.83
2022-09-06T03:56:13.020Z,79.30
2022-09-06T03:58:41.088Z,82.80
2022-09-06T04:01:11.875Z,82.83
2022-09-06T04:03:41.011Z,83.60
2022-09-06T04:06:09.413Z,78.20
2022-09-06T04:08:38.168Z,80.27
2022-09-06T04:11:06.885Z,83.53
2022-09-06T04:13:37.596Z,81.37
2022-09-06T04:16:06.454Z,81.17
2022-09-06T04:18:34.796Z,82.93
2022-09-06T04:21:02.897Z,83.27
2022-09-06T04:23:31.019Z,84.80
2022-09-06T04:26:00.252Z,84.07
2022-09-06T04:28:28.953Z,87.37
2022-09-06T04:31:03.966Z,81.80
2022-09-06T04:33:33.625Z,81.37
2022-09-06T04:36:02.688Z,82.80
2022-09-06T04:38:33.201Z,84.10
2022-09-06T04:41:01.278Z,85.50
2022-09-06T04:43:29.418Z,82.77
2022-09-06T04:46:04.297Z,86.33
2022-09-06T04:48:32.456Z,84.97
2022-09-06T04:51:00.491Z,86.57
2022-09-06T04:53:28.583Z,86.80
2022-09-06T04:55:58.515Z,85.50
2022-09-06T04:58:26.839Z,85.17
2022-09-06T05:00:54.995Z,85.17
2022-09-06T05:03:24.437Z,89.87
2022-09-06T05:05:52.519Z,87.07
2022-09-06T05:08:20.624Z,87.87
2022-09-06T05:10:52.399Z,86.70
2022-09-06T05:13:20.495Z,90.67
2022-09-06T05:15:48.600Z,89.13
2022-09-06T05:18:16.666Z,92.10
2022-09-06T05:20:52.663Z,88.07
2022-09-06T05:23:20.762Z,92.87
2022-09-06T05:25:49.149Z,91.80
2022-09-06T05:28:17.779Z,89.90
2022-09-06T05:30:45.979Z,88.97
2022-09-06T05:33:15.627Z,87.17
2022-09-06T05:35:43.711Z,87.40
2022-09-06T05:38:13.151Z,86.33
2022-09-06T05:40:41.207Z,87.33
2022-09-06T05:43:09.337Z,88.93
2022-09-06T05:45:37.569Z,87.97
2022-09-06T05:48:05.672Z,88.23
2022-09-06T05:50:33.744Z,87.53
2022-09-06T05:53:02.196Z,84.13
2022-09-06T05:55:31.694Z,87.37
2022-09-06T05:57:59.754Z,88.47
2022-09-06T06:00:27.803Z,85.17
2022-09-06T06:02:55.818Z,88.33
2022-09-06T06:05:23.882Z,85.77
2022-09-06T06:07:52.158Z,87.60
2022-09-06T06:10:20.205Z,89.37
2022-09-06T06:12:50.052Z,87.00
2022-09-06T06:15:18.160Z,89.17
2022-09-06T06:17:46.287Z,88.03
2022-09-06T06:20:14.467Z,88.30
2022-09-06T06:22:42.706Z,91.07
2022-09-06T06:25:12.773Z,88.10
2022-09-06T06:27:41.027Z,87.73
2022-09-06T06:30:17.795Z,87.80
2022-09-06T06:32:46.473Z,88.87
2022-09-06T06:35:14.774Z,89.70
2022-09-06T06:37:42.857Z,85.30
2022-09-06T06:40:11.662Z,85.87
2022-09-06T06:42:39.773Z,86.67
2022-09-06T06:45:11.142Z,86.83
2022-09-06T06:47:39.253Z,85.57
2022-09-06T06:50:08.233Z,82.90
2022-09-06T06:52:36.314Z,87.30
2022-09-06T06:55:05.959Z,84.20
2022-09-06T06:57:34.060Z,83.67
2022-09-06T07:00:03.508Z,85.20
2022-09-06T07:02:33.071Z,81.40
2022-09-06T07:05:01.273Z,83.20
2022-09-06T07:12:50.696Z,82.90
2022-09-06T07:15:18.808Z,84.80
2022-09-06T07:17:48.262Z,82.70
2022-09-06T07:20:16.814Z,83.87
2022-09-06T07:22:44.955Z,81.33
2022-09-06T07:25:20.366Z,82.20
2022-09-06T07:27:50.128Z,81.03
2022-09-06T07:30:19.984Z,88.15
2022-09-06T07:32:49.924Z,82.03
2022-09-06T07:35:20.372Z,78.30
2022-09-06T07:37:55.186Z,82.13
2022-09-06T07:40:23.578Z,79.03
2022-09-06T07:42:51.748Z,78.20
2022-09-06T07:45:20.212Z,79.77
2022-09-06T07:50:47.669Z,76.00
2022-09-06T07:53:23.325Z,78.73
2022-09-06T07:55:59.844Z,75.60
2022-09-06T07:58:28.127Z,75.97
2022-09-06T08:00:56.349Z,74.70
2022-09-06T08:03:25.749Z,74.93
2022-09-06T08:06:09.752Z,73.40
2022-09-06T08:11:28.370Z,75.07
2022-09-06T08:13:57.647Z,73.70
2022-09-06T08:16:27.894Z,75.60
2022-09-06T08:18:58.817Z,72.50
2022-09-06T08:21:28.707Z,76.63
2022-09-06T08:23:58.388Z,72.77
2022-09-06T08:26:27.231Z,73.13
2022-09-06T08:28:57.427Z,75.10
2022-09-06T08:31:25.645Z,73.30
2022-09-06T08:33:54.092Z,71.73
2022-09-06T08:36:23.711Z,74.57
2022-09-06T08:38:51.759Z,74.40
2022-09-06T08:41:25.949Z,70.47
2022-09-06T08:46:52.403Z,72.87
2022-09-06T08:49:20.637Z,70.47
2022-09-06T08:52:12.909Z,69.90
2022-09-06T08:54:42.545Z,70.60
2022-09-06T08:57:22.022Z,71.00
2022-09-06T08:59:51.681Z,73.22
2022-09-06T09:02:22.054Z,71.80
2022-09-06T09:04:52.518Z,71.20
2022-09-06T09:07:31.268Z,71.37
2022-09-06T09:09:59.639Z,73.00
2022-09-06T09:12:29.353Z,70.87
2022-09-06T09:15:03.346Z,74.57
2022-09-06T09:17:32.633Z,71.87
2022-09-06T09:20:00.687Z,71.03
2022-09-06T09:22:30.120Z,73.03
2022-09-06T09:24:59.163Z,72.00
2022-09-06T09:27:28.930Z,70.87
2022-09-06T09:32:50.662Z,70.40
2022-09-06T09:35:31.897Z,75.43
2022-09-06T09:38:11.802Z,71.70
2022-09-06T09:40:42.115Z,71.30
2022-09-06T09:43:14.396Z,77.23
2022-09-06T09:45:42.610Z,71.40
2022-09-06T09:48:22.929Z,70.80
2022-09-06T09:50:51.175Z,69.53
2022-09-06T09:53:22.691Z,70.67
2022-09-06T09:55:56.606Z,71.00
2022-09-06T09:58:32.869Z,75.13
2022-09-06T10:01:18.469Z,71.80
2022-09-06T10:09:34.869Z,70.23
2022-09-06T10:12:03.354Z,70.10
2022-09-06T10:14:32.782Z,76.47
2022-09-06T10:17:01.569Z,71.53
2022-09-06T10:19:40.838Z,73.60
2022-09-06T10:22:20.677Z,74.57
2022-09-06T10:25:09.178Z,70.50
2022-09-06T10:27:55.472Z,71.40
2022-09-06T10:30:30.671Z,70.30
2022-09-06T10:33:01.678Z,74.43
2022-09-06T10:35:32.338Z,69.53
2022-09-06T10:38:16.862Z,70.20
2022-09-06T10:40:53.211Z,70.50
2022-09-06T10:43:21.787Z,73.03
2022-09-06T10:45:59.196Z,73.27
2022-09-06T10:48:30.350Z,70.97
2022-09-06T10:51:01.066Z,73.17
2022-09-06T10:53:44.894Z,69.97
2022-09-06T10:56:17.915Z,70.10
2022-09-06T11:01:43.419Z,70.00
2022-09-06T11:04:20.109Z,70.60
2022-09-06T11:06:52.247Z,71.30
2022-09-06T11:09:25.551Z,71.80
2022-09-06T11:12:03.515Z,70.83
2022-09-06T11:14:31.603Z,70.17
2022-09-06T11:17:03.189Z,71.87
2022-09-06T11:19:34.155Z,71.70
2022-09-06T11:22:27.340Z,75.47
2022-09-06T11:25:23.955Z,73.37
2022-09-06T11:27:58.115Z,69.67
2022-09-06T11:30:26.948Z,72.00
2022-09-06T11:33:07.877Z,71.17
2022-09-06T11:35:36.302Z,69.93
2022-09-06T11:38:06.456Z,69.37
2022-09-06T11:40:38.553Z,73.47
2022-09-06T11:43:13.471Z,72.60
2022-09-06T11:45:44.825Z,71.80
2022-09-06T11:48:37.321Z,70.83
2022-09-06T11:51:07.810Z,69.40
2022-09-06T11:53:37.419Z,70.17
2022-09-06T11:56:15.632Z,70.67
2022-09-06T11:58:52.865Z,69.20
2022-09-06T12:01:40.967Z,71.60
2022-09-06T12:04:11.241Z,69.70
2022-09-06T12:06:41.644Z,70.63
2022-09-06T12:09:30.814Z,68.97
2022-09-06T12:11:59.886Z,72.23
2022-09-06T12:14:34.701Z,71.93
2022-09-06T12:17:27.443Z,71.53
2022-09-06T12:19:59.568Z,70.57
2022-09-06T12:23:04.416Z,69.77
2022-09-06T12:25:56.055Z,77.37
2022-09-06T12:28:39.116Z,75.00
2022-09-06T12:31:32.176Z,69.47
2022-09-06T12:34:00.831Z,71.10
2022-09-06T12:36:31.937Z,71.87
2022-09-06T12:39:02.258Z,70.13
2022-09-06T12:41:32.850Z,69.30
2022-09-06T12:44:02.891Z,69.37
2022-09-06T12:46:32.860Z,72.63
2022-09-06T12:49:03.051Z,71.83
2022-09-06T12:51:31.251Z,70.77
2022-09-06T12:54:01.219Z,69.90
2022-09-06T12:56:30.499Z,69.60
2022-09-06T12:59:14.419Z,69.47
2022-09-06T13:01:49.293Z,74.20
2022-09-06T13:04:27.755Z,70.23
2022-09-06T13:06:56.874Z,71.13
2022-09-06T13:09:27.028Z,79.23
2022-09-06T13:11:58.026Z,70.20
2022-09-06T13:14:27.223Z,72.50
2022-09-06T13:16:57.905Z,72.73
2022-09-06T13:19:42.637Z,69.77
2022-09-06T13:22:11.907Z,75.60
2022-09-06T13:24:49.120Z,69.57
2022-09-06T13:27:34.583Z,70.40
2022-09-06T13:30:05.768Z,69.77
2022-09-06T13:32:35.727Z,70.50
2022-09-06T13:35:04.460Z,70.73
2022-09-06T13:37:33.847Z,69.43
2022-09-06T13:40:05.189Z,68.97
2022-09-06T13:42:34.128Z,68.70
2022-09-06T13:45:17.507Z,72.00
2022-09-06T13:47:46.943Z,68.40
2022-09-06T13:50:15.949Z,68.67
2022-09-06T13:53:09.286Z,72.47
2022-09-06T13:55:37.477Z,73.40
2022-09-06T13:58:06.157Z,69.50
2022-09-06T14:00:34.350Z,70.90
2022-09-06T14:03:03.861Z,70.03
2022-09-06T14:05:32.087Z,70.30
2022-09-06T14:08:00.401Z,71.73
2022-09-06T14:10:28.513Z,70.77
2022-09-06T14:12:56.622Z,69.10
2022-09-06T14:15:25.161Z,69.00
2022-09-06T14:17:53.366Z,69.17
2022-09-06T14:20:22.806Z,76.90
2022-09-06T14:22:50.924Z,72.00
2022-09-06T14:25:18.989Z,70.90
2022-09-06T14:27:48.535Z,72.37
2022-09-06T14:30:16.727Z,70.97
2022-09-06T14:32:44.807Z,72.17
2022-09-06T14:35:13.331Z,76.00
2022-09-06T14:37:43.467Z,70.17
2022-09-06T14:40:12.022Z,71.53
2022-09-06T14:42:41.734Z,70.40
2022-09-06T14:45:10.673Z,71.77
2022-09-06T14:47:39.070Z,73.97
2022-09-06T14:50:08.293Z,69.10
2022-09-06T14:52:36.429Z,67.80
2022-09-06T14:55:06.843Z,71.93
2022-09-06T14:57:35.354Z,70.97
2022-09-06T15:00:08.337Z,76.63
2022-09-06T15:02:36.694Z,70.77
2022-09-06T15:05:05.848Z,70.90
2022-09-06T15:07:33.882Z,69.07
2022-09-06T15:10:03.223Z,80.10
2022-09-06T15:12:32.675Z,69.13
2022-09-06T15:15:00.754Z,70.27
2022-09-06T15:17:28.817Z,70.23
2022-09-06T15:19:56.916Z,73.43
2022-09-06T15:22:24.996Z,70.03
2022-09-06T15:24:53.191Z,70.17
2022-09-06T15:27:21.576Z,70.30
2022-09-06T15:29:51.538Z,71.93
2022-09-06T15:32:19.740Z,68.40
2022-09-06T15:34:47.842Z,73.87
2022-09-06T15:37:15.903Z,76.20
2022-09-06T15:39:44.065Z,69.50
2022-09-06T15:42:12.166Z,70.50
2022-09-06T15:44:40.708Z,69.87
2022-09-06T15:47:10.210Z,71.87
2022-09-06T15:49:38.533Z,72.47
2022-09-06T15:52:08.012Z,75.50
2022-09-06T15:54:53.941Z,70.50
2022-09-06T15:57:22.285Z,69.80
2022-09-06T15:59:50.385Z,70.30
2022-09-06T16:02:19.986Z,72.10
2022-09-06T16:04:48.120Z,68.57
2022-09-06T16:07:16.281Z,69.90
2022-09-06T16:09:45.379Z,71.60
2022-09-06T16:12:13.424Z,69.77
2022-09-06T16:14:41.573Z,71.30
2022-09-06T16:17:09.685Z,76.13
2022-09-06T16:19:39.860Z,73.57
2022-09-06T16:22:08.009Z,71.97
2022-09-06T16:24:36.214Z,71.67
2022-09-06T16:27:04.456Z,74.60
2022-09-06T16:29:32.581Z,74.03
2022-09-06T16:32:00.758Z,74.90
2022-09-06T16:34:28.868Z,77.97
2022-09-06T16:36:58.460Z,71.80
2022-09-06T16:39:27.077Z,74.93
2022-09-06T16:41:55.206Z,71.83
2022-09-06T16:44:23.270Z,71.57
2022-09-06T16:46:53.002Z,75.40
2022-09-06T16:49:21.376Z,73.03
2022-09-06T16:51:51.120Z,72.20
2022-09-06T16:54:20.762Z,77.47
2022-09-06T16:56:49.071Z,70.87
2022-09-06T16:59:17.391Z,72.80
2022-09-06T17:01:46.230Z,69.37
2022-09-06T17:04:14.618Z,70.80
2022-09-06T17:06:45.881Z,72.40
2022-09-06T17:09:15.513Z,72.43
2022-09-06T17:11:45.048Z,70.47
2022-09-06T17:14:13.214Z,78.50
2022-09-06T17:16:58.808Z,72.63
2022-09-06T17:19:27.611Z,74.17
2022-09-06T17:21:55.749Z,72.70
2022-09-06T17:24:23.900Z,73.40
2022-09-06T17:26:53.622Z,71.17
2022-09-06T17:29:21.842Z,75.57
2022-09-06T17:31:53.993Z,73.83
2022-09-06T17:34:22.372Z,75.53
2022-09-06T17:36:50.478Z,70.20
2022-09-06T17:39:21.948Z,69.57
2022-09-06T17:41:51.068Z,73.40
2022-09-06T17:44:22.038Z,70.70
2022-09-06T17:47:11.960Z,72.50
2022-09-06T17:49:39.369Z,73.27
2022-09-06T17:52:07.525Z,72.03
2022-09-06T17:54:35.653Z,73.67
2022-09-06T17:57:03.801Z,74.03
2022-09-06T17:59:35.762Z,73.67
2022-09-06T18:02:05.043Z,72.47
2022-09-06T18:04:33.242Z,72.23
2022-09-06T18:07:01.683Z,73.73
2022-09-06T18:09:29.950Z,75.97
2022-09-06T18:11:58.594Z,71.97
2022-09-06T18:14:28.657Z,75.50
2022-09-06T18:16:58.276Z,71.50
2022-09-06T18:19:27.508Z,70.50
2022-09-06T18:21:57.219Z,70.50
2022-09-06T18:24:25.593Z,73.87
2022-09-06T18:26:53.877Z,75.80
2022-09-06T18:29:22.084Z,70.70
2022-09-06T18:31:53.559Z,69.67
2022-09-06T18:34:23.205Z,73.63
2022-09-06T18:36:51.472Z,70.07
2022-09-06T18:39:20.424Z,70.37
2022-09-06T18:42:00.824Z,72.93
2022-09-06T18:44:32.418Z,70.73
2022-09-06T18:47:02.206Z,73.43
2022-09-06T18:49:32.529Z,71.20
2022-09-06T18:52:01.294Z,73.57
2022-09-06T18:54:29.610Z,75.70
2022-09-06T18:56:57.815Z,71.47
2022-09-06T18:59:25.978Z,70.30
2022-09-06T19:01:54.156Z,71.00
2022-09-06T19:04:22.500Z,74.20
2022-09-06T19:06:52.025Z,69.10
2022-09-06T19:09:20.458Z,75.93
2022-09-06T19:11:51.618Z,72.10
2022-09-06T19:14:20.357Z,70.87
2022-09-06T19:16:50.213Z,76.63
2022-09-06T19:19:18.494Z,74.00
2022-09-06T19:21:46.598Z,70.00
2022-09-06T19:24:16.306Z,77.67
2022-09-06T19:26:45.207Z,73.47
2022-09-06T19:29:15.598Z,73.63
2022-09-06T19:31:45.341Z,72.47
2022-09-06T19:34:15.493Z,70.50
2022-09-06T19:36:44.538Z,71.77
2022-09-06T19:39:15.121Z,70.23
2022-09-06T19:41:46.769Z,70.47
2022-09-06T19:44:15.802Z,72.20
2022-09-06T19:46:46.115Z,77.93
2022-09-06T19:49:15.032Z,74.87
2022-09-06T19:51:44.302Z,73.80
2022-09-06T19:54:12.608Z,71.77
2022-09-06T19:56:40.665Z,73.67
2022-09-06T19:59:12.185Z,73.07
2022-09-06T20:01:41.786Z,73.37
2022-09-06T20:04:11.953Z,79.00
2022-09-06T20:06:40.382Z,76.87
2022-09-06T20:09:10.509Z,73.17
2022-09-06T20:11:40.345Z,73.00
2022-09-06T20:14:10.310Z,81.23
2022-09-06T20:16:41.923Z,69.77
2022-09-06T20:19:12.355Z,69.40
2022-09-06T20:21:40.536Z,69.40
2022-09-06T20:24:08.945Z,70.03
2022-09-06T20:26:37.786Z,71.57
2022-09-06T20:29:06.799Z,72.53
2022-09-06T20:31:38.079Z,69.23
2022-09-06T20:34:07.392Z,78.10
2022-09-06T20:36:35.539Z,69.57
2022-09-06T20:39:03.777Z,69.57
2022-09-06T20:41:32.213Z,75.13
2022-09-06T20:44:00.937Z,70.47
2022-09-06T20:46:31.025Z,71.50
2022-09-06T20:49:04.236Z,70.37
2022-09-06T20:51:32.964Z,68.43
2022-09-06T20:54:01.806Z,67.87
2022-09-06T20:56:31.678Z,69.73
2022-09-06T20:59:02.514Z,72.90
2022-09-06T21:01:33.524Z,68.07
2022-09-06T21:04:04.694Z,72.60
2022-09-06T21:06:35.619Z,69.47
2022-09-06T21:09:04.633Z,68.77
2022-09-06T21:11:33.024Z,75.20
2022-09-06T21:14:25.834Z,71.63
2022-09-06T21:16:53.882Z,71.07
2022-09-06T21:19:23.352Z,75.13
2022-09-06T21:21:51.427Z,71.90
2022-09-06T21:24:19.481Z,74.30
2022-09-06T21:26:47.559Z,76.60
2022-09-06T21:29:15.619Z,73.07
2022-09-06T21:31:43.708Z,73.60
2022-09-06T21:34:17.001Z,72.60
2022-09-06T21:36:46.776Z,70.60
2022-09-06T21:39:15.270Z,73.90
2022-09-06T21:41:44.250Z,74.40
2022-09-06T21:44:13.180Z,74.00
2022-09-06T21:46:41.840Z,68.57
2022-09-06T21:49:11.885Z,69.20
2022-09-06T21:51:40.663Z,70.07
2022-09-06T21:54:10.255Z,69.37
2022-09-06T21:56:39.676Z,70.00
2022-09-06T21:59:08.467Z,73.07
2022-09-06T22:01:37.711Z,74.73
2022-09-06T22:04:06.497Z,70.50
2022-09-06T22:06:35.710Z,71.30
2022-09-06T22:09:11.341Z,71.67
2022-09-06T22:11:42.258Z,74.30
2022-09-06T22:14:13.033Z,71.20
2022-09-06T22:16:41.844Z,70.20
2022-09-06T22:19:10.265Z,73.50
2022-09-06T22:21:38.746Z,69.87
2022-09-06T22:24:08.561Z,74.63
2022-09-06T22:26:37.985Z,73.97
2022-09-06T22:29:09.081Z,71.17
2022-09-06T22:31:37.659Z,71.50
2022-09-06T22:34:06.272Z,69.80
2022-09-06T22:36:34.564Z,77.63
2022-09-06T22:39:02.596Z,70.00
2022-09-06T22:41:32.848Z,70.50
2022-09-06T22:44:01.078Z,73.80
2022-09-06T22:46:30.614Z,70.60
2022-09-06T22:48:58.867Z,72.57
2022-09-06T22:51:27.185Z,75.50
2022-09-06T22:53:55.266Z,72.93
2022-09-06T22:56:23.364Z,72.30
2022-09-06T22:58:51.459Z,70.77
2022-09-06T23:01:19.598Z,73.60
2022-09-06T23:03:49.922Z,70.87
2022-09-06T23:06:18.081Z,71.03
2022-09-06T23:08:46.149Z,72.80
2022-09-06T23:11:18.841Z,77.47
2022-09-06T23:13:47.331Z,71.40
2022-09-06T23:16:17.139Z,71.37
2022-09-06T23:18:45.733Z,71.00
2022-09-06T23:21:16.962Z,70.40
2022-09-06T23:23:45.334Z,73.50
2022-09-06T23:26:14.979Z,71.53
2022-09-06T23:28:43.633Z,70.60
2022-09-06T23:31:12.947Z,72.43
2022-09-06T23:33:41.947Z,68.70
2022-09-06T23:36:11.560Z,74.33
2022-09-06T23:38:42.676Z,68.90
2022-09-06T23:41:11.084Z,69.00
2022-09-06T23:43:39.501Z,71.50
2022-09-06T23:46:08.124Z,68.20
2022-09-06T23:48:36.754Z,69.70
2022-09-06T23:51:05.170Z,74.10
2022-09-06T23:53:33.889Z,71.30
2022-09-06T23:56:03.813Z,69.17
2022-09-06T23:58:32.236Z,68.53
